Time;durP1;ratioP1;P1;durP2;ratioP2;P2;SDS_P1;SDS_P2;PMS_P1;PMS_P2;Temp;Humidity;BMP_temperature;BMP_pressure;BME280_temperature;BME280_humidity;BME280_pressure;Samples;Min_cycle;Max_cycle;Signal;HPM_P1;HPM_P2
2022/04/17 00:01:18;;;;;;;;;3.00;3.00;;;;;;;;2;261076580;261076580;-74
2022/04/17 00:10:49;;;;;;;;;5.50;5.50;;;;;;;;2;288083634;288083634;-73
2022/04/17 00:19:04;;;;;;;;;1.00;1.00;;;;;;;;2;261075897;261075897;-74
2022/04/17 00:28:32;;;;;;;;;9.50;1.50;;;;;;;;2;288087041;288087041;-73
2022/04/17 00:36:47;;;;;;;;;3.50;3.50;;;;;;;;2;261074662;261074662;-74
2022/04/17 00:46:15;;;;;;;;;6.00;6.00;;;;;;;;2;288085648;288085648;-73
2022/04/17 00:54:30;;;;;;;;;1.50;1.50;;;;;;;;2;261075495;261075495;-73
2022/04/17 01:03:59;;;;;;;;;5.00;5.00;;;;;;;;2;288086190;288086190;-73
2022/04/17 01:12:16;;;;;;;;;1.50;1.50;;;;;;;;2;261076533;261076533;-73
2022/04/17 01:21:46;;;;;;;;;14.00;5.00;;;;;;;;2;288082794;288082794;-73
2022/04/17 01:30:03;;;;;;;;;12.50;4.00;;;;;;;;2;261075946;261075946;-73
2022/04/17 01:39:31;;;;;;;;;1.50;1.50;;;;;;;;2;288082463;288082463;-73
2022/04/17 01:47:49;;;;;;;;;5.00;5.00;;;;;;;;2;261078081;261078081;-73
2022/04/17 01:57:16;;;;;;;;;3.00;3.00;;;;;;;;2;288083246;288083246;-73
2022/04/17 02:05:32;;;;;;;;;3.50;3.50;;;;;;;;2;261074331;261074331;-74
2022/04/17 02:15:00;;;;;;;;;5.50;5.50;;;;;;;;2;288083894;288083894;-72
2022/04/17 02:23:15;;;;;;;;;3.00;3.00;;;;;;;;2;261075303;261075303;-72
2022/04/17 02:32:42;;;;;;;;;1.00;1.00;;;;;;;;2;288084295;288084295;-72
2022/04/17 02:40:58;;;;;;;;;3.50;3.50;;;;;;;;2;261075048;261075048;-72
2022/04/17 02:50:26;;;;;;;;;1.50;1.50;;;;;;;;2;288082526;288082526;-72
2022/04/17 02:58:41;;;;;;;;;1.50;1.50;;;;;;;;2;261077905;261077905;-72
2022/04/17 03:08:10;;;;;;;;;3.00;3.00;;;;;;;;2;288082658;288082658;-72
2022/04/17 03:16:26;;;;;;;;;0.50;0.50;;;;;;;;2;261076801;261076801;-72
2022/04/17 03:25:53;;;;;;;;;11.00;6.00;;;;;;;;2;288084950;288084950;-72
2022/04/17 03:34:09;;;;;;;;;2.50;2.50;;;;;;;;2;261076376;261076376;-72
2022/04/17 03:43:36;;;;;;;;;4.00;4.00;;;;;;;;2;288086366;288086366;-72
2022/04/17 03:51:52;;;;;;;;;5.00;5.00;;;;;;;;2;261078415;261078415;-72
2022/04/17 04:01:20;;;;;;;;;4.00;4.00;;;;;;;;2;288085852;288085852;-72
2022/04/17 04:09:35;;;;;;;;;5.00;5.00;;;;;;;;2;261075954;261075954;-72
2022/04/17 04:19:05;;;;;;;;;3.00;3.00;;;;;;;;2;288084603;288084603;-72
2022/04/17 04:37:06;;;;;;;;;3.00;3.00;;;;;;;;2;288081629;288081629;-72
2022/04/17 04:55:08;;;;;;;;;3.00;3.00;;;;;;;;2;288082983;288082983;-72
2022/04/17 05:03:25;;;;;;;;;1.50;1.50;;;;;;;;2;261075599;261075599;-72
2022/04/17 05:12:52;;;;;;;;;2.50;2.50;;;;;;;;2;288085980;288085980;-72
2022/04/17 05:21:08;;;;;;;;;3.50;3.50;;;;;;;;2;261074495;261074495;-72
2022/04/17 05:30:35;;;;;;;;;4.00;4.00;;;;;;;;2;288083312;288083312;-72
2022/04/17 05:38:53;;;;;;;;;3.00;3.00;;;;;;;;2;261074292;261074292;-72
2022/04/17 05:48:21;;;;;;;;;3.50;3.50;;;;;;;;2;288082919;288082919;-72
2022/04/17 05:56:37;;;;;;;;;4.50;3.00;;;;;;;;2;261075980;261075980;-72
2022/04/17 06:06:05;;;;;;;;;1.50;1.50;;;;;;;;2;288084102;288084102;-72
2022/04/17 06:14:20;;;;;;;;;7.00;3.00;;;;;;;;2;261077244;261077244;-73
2022/04/17 06:23:48;;;;;;;;;5.00;5.00;;;;;;;;2;288083305;288083305;-72
2022/04/17 06:32:04;;;;;;;;;4.00;4.00;;;;;;;;2;261075725;261075725;-72
2022/04/17 06:41:31;;;;;;;;;3.50;3.50;;;;;;;;2;288084969;288084969;-72
2022/04/17 06:49:47;;;;;;;;;3.00;3.00;;;;;;;;2;261075358;261075358;-72
2022/04/17 06:59:14;;;;;;;;;6.50;3.00;;;;;;;;2;288088873;288088873;-73
2022/04/17 07:07:30;;;;;;;;;0.00;0.00;;;;;;;;2;261074746;261074746;-73
2022/04/17 07:16:57;;;;;;;;;1.50;1.50;;;;;;;;2;288088117;288088117;-73
2022/04/17 07:25:13;;;;;;;;;2.00;2.00;;;;;;;;2;261080380;261080380;-73
2022/04/17 07:34:41;;;;;;;;;2.50;2.50;;;;;;;;2;288084295;288084295;-73
2022/04/17 07:42:58;;;;;;;;;1.00;1.00;;;;;;;;2;261075930;261075930;-75
2022/04/17 07:52:26;;;;;;;;;9.00;9.00;;;;;;;;2;288083927;288083927;-75
2022/04/17 08:00:57;;;;;;;;;6.00;4.00;;;;;;;;2;261077644;261077644;-75
2022/04/17 08:13:46;;;;;;;;;4.00;4.00;;;;;;;;2;288084679;288084679;-74
2022/04/17 08:22:02;;;;;;;;;3.00;3.00;;;;;;;;2;261079360;261079360;-74
2022/04/17 08:31:30;;;;;;;;;4.00;4.00;;;;;;;;2;288083853;288083853;-73
2022/04/17 08:39:45;;;;;;;;;16.00;7.00;;;;;;;;2;261079928;261079928;-71
2022/04/17 08:49:13;;;;;;;;;14.00;6.50;;;;;;;;2;288085437;288085437;-71
2022/04/17 08:57:28;;;;;;;;;4.00;4.00;;;;;;;;2;261080320;261080320;-71
2022/04/17 09:06:56;;;;;;;;;4.50;4.50;;;;;;;;2;288081253;288081253;-71
2022/04/17 09:15:13;;;;;;;;;3.00;3.00;;;;;;;;2;261078077;261078077;-71
2022/04/17 09:24:45;;;;;;;;;6.00;6.00;;;;;;;;2;288084717;288084717;-73
2022/04/17 09:33:05;;;;;;;;;4.00;4.00;;;;;;;;2;261076963;261076963;-72
2022/04/17 09:42:32;;;;;;;;;3.50;3.50;;;;;;;;2;288081143;288081143;-72
2022/04/17 09:50:48;;;;;;;;;4.00;4.00;;;;;;;;2;261074685;261074685;-73
2022/04/17 10:00:19;;;;;;;;;73.50;68.50;;;;;;;;2;288085475;288085475;-73
2022/04/17 10:08:35;;;;;;;;;66.00;52.50;;;;;;;;2;261078062;261078062;-71
2022/04/17 10:18:04;;;;;;;;;10.50;10.50;;;;;;;;2;288084118;288084118;-74
2022/04/17 10:26:20;;;;;;;;;64.50;45.00;;;;;;;;2;261075755;261075755;-74
2022/04/17 10:35:48;;;;;;;;;60.00;45.50;;;;;;;;2;288084541;288084541;-73
2022/04/17 10:44:03;;;;;;;;;60.50;41.00;;;;;;;;2;261077831;261077831;-75
2022/04/17 10:53:31;;;;;;;;;77.50;66.00;;;;;;;;2;288084019;288084019;-75
2022/04/17 11:01:49;;;;;;;;;68.50;49.00;;;;;;;;2;261075595;261075595;-75
2022/04/17 11:11:17;;;;;;;;;66.00;49.00;;;;;;;;2;288085030;288085030;-74
2022/04/17 11:19:34;;;;;;;;;52.00;39.50;;;;;;;;2;261077136;261077136;-75
2022/04/17 11:29:01;;;;;;;;;71.00;66.00;;;;;;;;2;288082784;288082784;-74
2022/04/17 11:37:17;;;;;;;;;12.50;7.50;;;;;;;;2;261075201;261075201;-75
2022/04/17 11:46:44;;;;;;;;;68.00;45.00;;;;;;;;2;288084776;288084776;-74
2022/04/17 11:55:00;;;;;;;;;81.00;75.50;;;;;;;;2;261075169;261075169;-75
2022/04/17 12:04:27;;;;;;;;;5.00;5.00;;;;;;;;2;288084175;288084175;-76
2022/04/17 12:12:44;;;;;;;;;5.00;5.00;;;;;;;;2;261077933;261077933;-77
2022/04/17 12:22:12;;;;;;;;;91.00;63.50;;;;;;;;2;288083730;288083730;-76
2022/04/17 12:30:27;;;;;;;;;146.50;140.50;;;;;;;;2;261075521;261075521;-79
2022/04/17 12:40:08;;;;;;;;;55.00;38.00;;;;;;;;2;288084194;288084194;-83
2022/04/17 12:48:28;;;;;;;;;75.00;70.00;;;;;;;;2;261078733;261078733;-80
2022/04/17 12:57:55;;;;;;;;;91.50;71.00;;;;;;;;2;288085342;288085342;-79
2022/04/17 13:06:17;;;;;;;;;55.50;47.00;;;;;;;;2;261076704;261076704;-76
2022/04/17 13:15:44;;;;;;;;;107.00;107.00;;;;;;;;2;288083226;288083226;-78
2022/04/17 13:24:01;;;;;;;;;158.00;144.50;;;;;;;;2;261077590;261077590;-76
2022/04/17 13:33:28;;;;;;;;;108.50;87.50;;;;;;;;2;288084989;288084989;-83
2022/04/17 13:41:44;;;;;;;;;9.50;9.50;;;;;;;;2;261079159;261079159;-77
2022/04/17 13:51:12;;;;;;;;;116.50;116.50;;;;;;;;2;288083665;288083665;-76
2022/04/17 13:59:28;;;;;;;;;57.00;41.50;;;;;;;;2;261077614;261077614;-76
2022/04/17 14:08:56;;;;;;;;;65.00;53.50;;;;;;;;2;288085696;288085696;-76
2022/04/17 14:17:12;;;;;;;;;64.50;56.50;;;;;;;;2;261077593;261077593;-78
2022/04/17 14:26:40;;;;;;;;;47.50;36.00;;;;;;;;2;288082992;288082992;-81
2022/04/17 14:34:55;;;;;;;;;83.00;64.00;;;;;;;;2;261078348;261078348;-83
2022/04/17 14:44:23;;;;;;;;;86.00;58.00;;;;;;;;2;288085705;288085705;-78
2022/04/17 14:52:38;;;;;;;;;148.00;145.50;;;;;;;;2;261076046;261076046;-81
2022/04/17 15:02:07;;;;;;;;;106.00;106.00;;;;;;;;2;288087551;288087551;-77
2022/04/17 15:10:23;;;;;;;;;113.00;113.00;;;;;;;;2;261077189;261077189;-76
2022/04/17 15:19:53;;;;;;;;;144.50;137.50;;;;;;;;2;288083948;288083948;-75
2022/04/17 15:28:08;;;;;;;;;136.50;119.00;;;;;;;;2;261077037;261077037;-76
2022/04/17 15:37:36;;;;;;;;;98.50;97.50;;;;;;;;2;288083190;288083190;-80
2022/04/17 15:55:39;;;;;;;;;141.00;138.00;;;;;;;;2;288087639;288087639;-74
2022/04/17 16:03:55;;;;;;;;;101.00;101.00;;;;;;;;2;261075630;261075630;-74
2022/04/17 16:13:22;;;;;;;;;124.50;123.50;;;;;;;;2;288085257;288085257;-73
2022/04/17 16:21:38;;;;;;;;;142.00;132.00;;;;;;;;2;261076772;261076772;-76
2022/04/17 16:31:06;;;;;;;;;149.00;129.50;;;;;;;;2;288083853;288083853;-80
2022/04/17 16:39:22;;;;;;;;;108.00;108.00;;;;;;;;2;261076982;261076982;-77
2022/04/17 16:48:49;;;;;;;;;149.50;130.50;;;;;;;;2;288084005;288084005;-77
2022/04/17 17:06:51;;;;;;;;;136.00;123.50;;;;;;;;2;288081452;288081452;-79
2022/04/17 17:15:07;;;;;;;;;164.50;146.50;;;;;;;;2;261075287;261075287;-79
2022/04/17 17:24:34;;;;;;;;;86.00;85.00;;;;;;;;2;288084623;288084623;-82
2022/04/17 17:32:50;;;;;;;;;144.00;137.50;;;;;;;;2;261078344;261078344;-81
2022/04/17 17:42:21;;;;;;;;;85.00;72.00;;;;;;;;2;288083341;288083341;-82
2022/04/17 17:50:36;;;;;;;;;126.50;115.00;;;;;;;;2;261078846;261078846;-94
2022/04/17 18:00:04;;;;;;;;;103.50;100.50;;;;;;;;2;288083488;288083488;-74
2022/04/17 18:18:06;;;;;;;;;110.50;108.00;;;;;;;;2;288084586;288084586;-82
2022/04/17 18:26:23;;;;;;;;;100.50;97.50;;;;;;;;2;261075807;261075807;-82
2022/04/17 18:35:52;;;;;;;;;130.00;127.50;;;;;;;;2;288082727;288082727;-83
2022/04/17 18:44:10;;;;;;;;;103.50;103.50;;;;;;;;2;261075992;261075992;-82
2022/04/17 18:53:38;;;;;;;;;117.50;117.50;;;;;;;;2;288085981;288085981;-84
2022/04/17 19:01:53;;;;;;;;;8.50;8.50;;;;;;;;2;261077806;261077806;-83
2022/04/17 19:19:55;;;;;;;;;114.00;110.50;;;;;;;;2;261077113;261077113;-85
2022/04/17 19:29:23;;;;;;;;;107.00;105.00;;;;;;;;2;288085921;288085921;-85
2022/04/17 19:48:08;;;;;;;;;117.50;111.50;;;;;;;;2;288089059;288089059;-86
2022/04/17 19:56:23;;;;;;;;;107.00;98.00;;;;;;;;2;261080221;261080221;-86
2022/04/17 20:05:51;;;;;;;;;125.00;85.00;;;;;;;;2;288082647;288082647;-84
2022/04/17 20:14:06;;;;;;;;;6.00;6.00;;;;;;;;2;261079300;261079300;-82
2022/04/17 20:23:37;;;;;;;;;8.00;8.00;;;;;;;;2;288082754;288082754;-85
2022/04/17 20:31:53;;;;;;;;;6.00;6.00;;;;;;;;2;261076006;261076006;-84
2022/04/17 20:41:20;;;;;;;;;6.00;6.00;;;;;;;;2;288084360;288084360;-85
2022/04/17 20:59:22;;;;;;;;;14.00;3.50;;;;;;;;2;288082365;288082365;-83
2022/04/17 21:07:37;;;;;;;;;17.50;5.50;;;;;;;;2;261077514;261077514;-83
2022/04/17 21:17:05;;;;;;;;;5.00;5.00;;;;;;;;2;288086357;288086357;-81
2022/04/17 21:35:29;;;;;;;;;5.50;5.50;;;;;;;;2;288086306;288086306;-85
2022/04/17 21:43:45;;;;;;;;;1.50;1.50;;;;;;;;2;261074544;261074544;-85
2022/04/17 21:53:53;;;;;;;;;3.00;3.00;;;;;;;;2;288084488;288084488;-87
2022/04/17 22:11:56;;;;;;;;;10.50;2.00;;;;;;;;2;288083756;288083756;-77
2022/04/17 22:20:12;;;;;;;;;1.50;1.50;;;;;;;;2;261076218;261076218;-77
2022/04/17 22:29:39;;;;;;;;;2.00;2.00;;;;;;;;2;288080573;288080573;-77
2022/04/17 22:37:55;;;;;;;;;2.50;2.50;;;;;;;;2;261075546;261075546;-77
2022/04/17 22:47:22;;;;;;;;;3.50;3.50;;;;;;;;2;288086052;288086052;-77
2022/04/17 22:55:38;;;;;;;;;102.00;99.00;;;;;;;;2;261074390;261074390;-77
2022/04/17 23:05:05;;;;;;;;;2.00;2.00;;;;;;;;2;288083569;288083569;-77
2022/04/17 23:13:21;;;;;;;;;1.50;1.50;;;;;;;;2;261076715;261076715;-77
2022/04/17 23:22:48;;;;;;;;;13.50;2.50;;;;;;;;2;288087714;288087714;-77
2022/04/17 23:31:04;;;;;;;;;2.00;2.00;;;;;;;;2;261075706;261075706;-77
2022/04/17 23:40:31;;;;;;;;;3.00;3.00;;;;;;;;2;288085909;288085909;-76
2022/04/17 23:48:47;;;;;;;;;3.50;3.50;;;;;;;;2;261074798;261074798;-76
2022/04/17 23:58:14;;;;;;;;;114.00;105.00;;;;;;;;2;288084859;288084859;-76
